createdAt,value
2018-03-21T00:00:39.730Z,31.57
2018-03-21T00:03:08.022Z,28.70
2018-03-21T00:05:36.210Z,29.13
2018-03-21T00:08:04.630Z,28.43
2018-03-21T00:10:33.500Z,29.20
2018-03-21T00:13:01.775Z,26.10
2018-03-21T00:15:29.888Z,29.43
2018-03-21T00:17:58.016Z,24.97
2018-03-21T00:20:26.116Z,30.27
2018-03-21T00:22:54.228Z,32.20
2018-03-21T00:25:22.334Z,31.93
2018-03-21T00:27:50.500Z,32.00
2018-03-21T00:30:18.615Z,31.20
2018-03-21T00:32:46.769Z,32.00
2018-03-21T00:35:15.207Z,29.07
2018-03-21T00:37:43.309Z,32.10
2018-03-21T00:40:11.435Z,29.17
2018-03-21T00:42:39.542Z,31.10
2018-03-21T00:45:07.646Z,31.87
2018-03-21T00:47:35.745Z,31.77
2018-03-21T00:50:03.844Z,29.80
2018-03-21T00:52:31.989Z,29.60
2018-03-21T00:55:00.142Z,28.73
2018-03-21T00:57:28.343Z,32.90
2018-03-21T00:59:56.449Z,31.47
2018-03-21T01:02:24.580Z,28.30
2018-03-21T01:04:52.718Z,28.80
2018-03-21T01:07:20.845Z,29.80
2018-03-21T01:09:48.971Z,33.13
2018-03-21T01:12:17.080Z,31.20
2018-03-21T01:14:45.220Z,38.13
2018-03-21T01:17:14.188Z,36.73
2018-03-21T01:19:42.748Z,36.77
2018-03-21T01:22:10.863Z,35.00
2018-03-21T01:24:39.764Z,32.30
2018-03-21T01:27:08.541Z,32.33
2018-03-21T01:29:36.644Z,30.13
2018-03-21T01:32:04.843Z,35.73
2018-03-21T01:34:33.213Z,33.43
2018-03-21T01:37:01.470Z,33.00
2018-03-21T01:39:29.582Z,34.13
2018-03-21T01:41:57.729Z,33.77
2018-03-21T01:44:25.842Z,36.87
2018-03-21T01:46:54.536Z,34.13
2018-03-21T01:49:22.658Z,36.67
2018-03-21T01:51:50.784Z,35.03
2018-03-21T01:54:19.004Z,29.00
2018-03-21T01:56:47.143Z,32.00
2018-03-21T01:59:16.732Z,31.23
2018-03-21T02:01:45.488Z,30.67
2018-03-21T02:04:13.728Z,36.87
2018-03-21T02:06:42.089Z,31.63
2018-03-21T02:09:10.512Z,35.13
2018-03-21T02:11:38.607Z,32.20
2018-03-21T02:14:06.721Z,38.10
2018-03-21T02:16:34.818Z,35.23
2018-03-21T02:19:02.921Z,35.17
2018-03-21T02:21:31.017Z,39.43
2018-03-21T02:23:59.129Z,34.27
2018-03-21T02:26:27.261Z,39.00
2018-03-21T02:28:56.125Z,42.37
2018-03-21T02:31:24.487Z,39.17
2018-03-21T02:33:52.663Z,44.03
2018-03-21T02:36:20.801Z,41.40
2018-03-21T02:38:48.915Z,47.00
2018-03-21T02:41:17.005Z,40.70
2018-03-21T02:43:45.111Z,38.57
2018-03-21T02:46:13.208Z,45.83
2018-03-21T02:48:41.331Z,45.60
2018-03-21T02:51:10.109Z,47.13
2018-03-21T02:53:38.202Z,48.23
2018-03-21T02:56:06.382Z,51.67
2018-03-21T02:58:34.540Z,40.80
2018-03-21T03:01:02.652Z,47.93
2018-03-21T03:03:30.770Z,47.73
2018-03-21T03:05:58.877Z,46.73
2018-03-21T03:08:27.787Z,43.90
2018-03-21T03:10:55.883Z,40.93
2018-03-21T03:13:24.464Z,44.03
2018-03-21T03:15:52.566Z,49.13
2018-03-21T03:18:20.692Z,42.07
2018-03-21T03:20:48.788Z,42.43
2018-03-21T03:23:16.903Z,43.47
2018-03-21T03:25:45.021Z,37.10
2018-03-21T03:28:13.122Z,40.40
2018-03-21T03:30:41.241Z,39.53
2018-03-21T03:33:09.348Z,45.90
2018-03-21T03:35:37.461Z,41.93
2018-03-21T03:38:05.593Z,39.13
2018-03-21T03:40:33.737Z,40.47
2018-03-21T03:43:01.837Z,37.50
2018-03-21T03:45:29.931Z,35.97
2018-03-21T03:47:58.034Z,37.10
2018-03-21T03:50:26.189Z,35.87
2018-03-21T03:52:54.352Z,37.57
2018-03-21T03:55:22.457Z,32.27
2018-03-21T03:57:50.570Z,38.60
2018-03-21T04:00:18.674Z,36.43
2018-03-21T04:02:46.956Z,37.50
2018-03-21T04:05:15.165Z,33.53
2018-03-21T04:07:43.277Z,38.57
2018-03-21T04:10:11.399Z,44.80
2018-03-21T04:12:40.001Z,42.00
2018-03-21T04:15:08.207Z,37.97
2018-03-21T04:17:36.353Z,37.80
2018-03-21T04:20:04.601Z,38.17
2018-03-21T04:22:32.819Z,36.80
2018-03-21T04:25:00.923Z,37.33
2018-03-21T04:27:29.045Z,37.10
2018-03-21T04:29:57.137Z,36.37
2018-03-21T04:32:25.264Z,40.40
2018-03-21T04:34:54.167Z,38.47
2018-03-21T04:37:22.284Z,38.10
2018-03-21T04:39:50.385Z,40.83
2018-03-21T04:42:18.800Z,35.53
2018-03-21T04:44:46.898Z,35.57
2018-03-21T04:47:14.999Z,32.70
2018-03-21T04:49:43.168Z,32.07
2018-03-21T04:52:11.276Z,33.07
2018-03-21T04:54:39.392Z,30.97
2018-03-21T04:57:07.506Z,33.60
2018-03-21T04:59:35.688Z,29.10
2018-03-21T05:02:03.920Z,44.17
2018-03-21T05:04:32.196Z,37.87
2018-03-21T05:07:00.387Z,32.23
2018-03-21T05:09:28.518Z,36.70
2018-03-21T05:11:56.627Z,34.03
2018-03-21T05:14:24.896Z,33.93
2018-03-21T05:16:53.019Z,32.10
2018-03-21T05:19:21.117Z,34.87
2018-03-21T05:21:49.236Z,33.23
2018-03-21T05:24:17.368Z,30.40
2018-03-21T05:26:45.456Z,32.43
2018-03-21T05:29:13.642Z,26.53
2018-03-21T05:31:41.760Z,30.77
2018-03-21T05:34:09.869Z,30.80
2018-03-21T05:36:38.735Z,27.10
2018-03-21T05:39:06.863Z,35.83
2018-03-21T05:41:34.989Z,27.60
2018-03-21T05:44:03.155Z,23.03
2018-03-21T05:46:31.367Z,26.60
2018-03-21T05:48:59.533Z,24.30
2018-03-21T05:51:28.511Z,24.70
2018-03-21T05:53:57.384Z,20.00
2018-03-21T05:56:25.568Z,20.17
2018-03-21T05:58:53.666Z,17.33
2018-03-21T06:01:21.785Z,20.73
2018-03-21T06:03:49.893Z,18.80
2018-03-21T06:06:18.042Z,18.17
2018-03-21T06:08:46.161Z,21.50
2018-03-21T06:11:14.367Z,24.90
2018-03-21T06:13:42.524Z,16.40
2018-03-21T06:16:11.406Z,16.40
2018-03-21T06:18:39.538Z,16.50
2018-03-21T06:21:07.767Z,13.87
2018-03-21T06:23:35.900Z,14.33
2018-03-21T06:26:04.012Z,14.60
2018-03-21T06:28:32.901Z,15.80
2018-03-21T06:31:01.084Z,17.03
2018-03-21T06:33:29.196Z,17.03
2018-03-21T06:35:58.221Z,14.23
2018-03-21T06:38:26.348Z,13.10
2018-03-21T06:40:54.536Z,15.07
2018-03-21T06:43:22.649Z,17.53
2018-03-21T06:45:50.738Z,12.17
2018-03-21T06:48:18.866Z,14.73
2018-03-21T06:50:46.946Z,12.23
2018-03-21T06:53:15.088Z,11.43
2018-03-21T06:55:44.644Z,12.77
2018-03-21T06:58:12.745Z,11.63
2018-03-21T07:00:40.851Z,11.77
2018-03-21T07:03:08.981Z,15.47
2018-03-21T07:05:37.189Z,13.50
2018-03-21T07:08:05.414Z,11.53
2018-03-21T07:10:33.657Z,10.20
2018-03-21T07:13:01.765Z,11.30
2018-03-21T07:15:47.879Z,11.93
2018-03-21T07:18:15.970Z,12.80
2018-03-21T07:20:44.125Z,9.77
2018-03-21T07:23:12.262Z,11.20
2018-03-21T07:25:40.368Z,10.30
2018-03-21T07:28:08.539Z,10.00
2018-03-21T07:30:37.229Z,8.43
2018-03-21T07:33:05.359Z,9.20
2018-03-21T07:35:33.484Z,7.77
2018-03-21T07:38:01.603Z,7.93
2018-03-21T07:40:29.742Z,8.43
2018-03-21T07:42:57.868Z,8.27
2018-03-21T07:45:25.974Z,8.07
2018-03-21T07:47:54.076Z,8.20
2018-03-21T07:50:22.276Z,8.87
2018-03-21T07:52:50.460Z,7.57
2018-03-21T07:55:18.950Z,7.77
2018-03-21T07:57:47.068Z,9.60
2018-03-21T08:00:15.254Z,6.73
2018-03-21T08:02:43.676Z,8.70
2018-03-21T08:05:12.083Z,7.70
2018-03-21T08:07:40.208Z,9.47
2018-03-21T08:10:08.296Z,8.60
2018-03-21T08:12:37.201Z,7.03
2018-03-21T08:15:05.310Z,7.20
2018-03-21T08:17:33.420Z,8.00
2018-03-21T08:20:01.520Z,7.00
2018-03-21T08:22:29.605Z,7.83
2018-03-21T08:24:57.731Z,7.40
2018-03-21T08:27:25.850Z,8.10
2018-03-21T08:29:53.964Z,7.83
2018-03-21T08:32:22.070Z,6.97
2018-03-21T08:34:50.464Z,8.77
2018-03-21T08:37:18.568Z,7.67
2018-03-21T08:39:46.725Z,7.20
2018-03-21T08:42:14.940Z,7.57
2018-03-21T08:44:43.002Z,9.17
2018-03-21T08:47:15.299Z,8.10
2018-03-21T08:49:43.418Z,8.77
2018-03-21T08:52:11.530Z,8.40
2018-03-21T08:54:39.644Z,9.83
2018-03-21T08:57:07.805Z,8.17
2018-03-21T08:59:36.008Z,8.83
2018-03-21T09:02:04.156Z,8.30
2018-03-21T09:04:33.774Z,9.73
2018-03-21T09:07:01.886Z,9.50
2018-03-21T09:09:30.044Z,9.97
2018-03-21T09:11:58.152Z,7.60
2018-03-21T09:14:26.274Z,9.40
2018-03-21T09:16:54.849Z,9.63
2018-03-21T09:19:23.011Z,8.93
2018-03-21T09:21:55.139Z,7.73
2018-03-21T09:24:23.570Z,10.33
2018-03-21T09:26:51.703Z,8.77
2018-03-21T09:29:19.885Z,10.07
2018-03-21T09:31:48.027Z,8.87
2018-03-21T09:34:16.645Z,11.70
2018-03-21T09:36:45.155Z,9.97
2018-03-21T09:39:13.267Z,11.50
2018-03-21T09:41:41.354Z,10.10
2018-03-21T09:44:09.455Z,11.53
2018-03-21T09:46:37.581Z,11.57
2018-03-21T09:49:05.682Z,9.10
2018-03-21T09:51:33.781Z,8.90
2018-03-21T09:54:09.364Z,9.73
2018-03-21T09:56:37.520Z,10.60
2018-03-21T09:59:05.767Z,12.03
2018-03-21T10:01:33.984Z,10.27
2018-03-21T10:04:02.180Z,9.90
2018-03-21T10:06:31.212Z,11.90
2018-03-21T10:09:00.094Z,9.40
2018-03-21T10:11:28.187Z,13.53
2018-03-21T10:13:56.381Z,10.63
2018-03-21T10:16:24.547Z,13.53
2018-03-21T10:18:52.636Z,10.63
2018-03-21T10:21:20.763Z,9.97
2018-03-21T10:23:48.905Z,11.23
2018-03-21T10:26:17.022Z,9.33
2018-03-21T10:28:45.129Z,13.70
2018-03-21T10:31:13.230Z,10.77
2018-03-21T10:33:41.340Z,12.50
2018-03-21T10:36:09.460Z,11.03
2018-03-21T10:38:37.656Z,11.17
2018-03-21T10:41:05.752Z,11.73
2018-03-21T10:43:33.904Z,11.40
2018-03-21T10:46:02.008Z,11.90
2018-03-21T10:48:30.183Z,11.40
2018-03-21T10:50:58.298Z,12.13
2018-03-21T10:53:26.483Z,10.50
2018-03-21T10:55:54.552Z,12.23
2018-03-21T10:58:22.731Z,12.03
2018-03-21T11:00:50.903Z,11.60
2018-03-21T11:16:14.178Z,10.87
2018-03-21T11:18:43.077Z,7.77
2018-03-21T11:21:11.231Z,8.63
2018-03-21T11:23:40.166Z,9.07
2018-03-21T11:26:08.276Z,9.83
2018-03-21T11:28:36.402Z,11.10
2018-03-21T11:31:04.561Z,12.97
2018-03-21T11:33:33.419Z,10.73
2018-03-21T11:36:01.513Z,9.40
2018-03-21T11:38:30.402Z,10.53
2018-03-21T11:40:58.503Z,11.73
2018-03-21T11:43:26.638Z,11.00
2018-03-21T11:45:54.750Z,8.40
2018-03-21T11:48:22.869Z,9.30
2018-03-21T11:50:51.016Z,7.93
2018-03-21T11:53:19.237Z,7.47
2018-03-21T11:55:48.182Z,7.13
2018-03-21T11:58:16.338Z,7.23
2018-03-21T12:00:44.482Z,7.13
2018-03-21T12:03:12.576Z,8.43
2018-03-21T12:05:40.721Z,9.40
2018-03-21T12:08:08.824Z,7.80
2018-03-21T12:10:36.942Z,9.87
2018-03-21T12:13:05.052Z,7.00
2018-03-21T12:15:33.229Z,8.13
2018-03-21T12:18:01.331Z,8.23
2018-03-21T12:20:29.467Z,6.73
2018-03-21T12:22:57.560Z,8.83
2018-03-21T12:25:25.690Z,7.97
2018-03-21T12:27:53.827Z,8.20
2018-03-21T12:30:21.992Z,7.67
2018-03-21T12:32:50.303Z,7.87
2018-03-21T12:35:18.447Z,8.30
2018-03-21T12:37:46.579Z,7.93
2018-03-21T12:40:14.735Z,6.30
2018-03-21T12:42:43.377Z,8.53
2018-03-21T12:45:11.512Z,7.23
2018-03-21T12:47:39.701Z,8.27
2018-03-21T12:50:07.927Z,8.27
2018-03-21T12:52:36.166Z,10.73
2018-03-21T12:55:04.383Z,6.57
2018-03-21T12:57:32.549Z,6.10
2018-03-21T13:00:00.662Z,4.70
2018-03-21T13:15:23.882Z,7.70
2018-03-21T13:17:51.997Z,6.30
2018-03-21T13:20:20.150Z,4.20
2018-03-21T13:22:48.292Z,4.60
2018-03-21T13:25:16.454Z,5.33
2018-03-21T13:27:44.570Z,4.23
2018-03-21T13:30:12.782Z,4.27
2018-03-21T13:32:40.906Z,6.33
2018-03-21T13:35:09.088Z,4.57
2018-03-21T13:37:37.980Z,4.20
2018-03-21T13:40:06.090Z,3.80
2018-03-21T13:42:34.307Z,3.90
2018-03-21T13:45:02.541Z,4.93
2018-03-21T13:47:30.739Z,4.07
2018-03-21T13:49:58.987Z,4.53
2018-03-21T13:52:27.199Z,7.73
2018-03-21T13:54:55.357Z,6.53
2018-03-21T13:57:23.451Z,7.53
2018-03-21T13:59:51.589Z,4.87
2018-03-21T14:02:19.697Z,4.40
2018-03-21T14:04:49.543Z,6.00
2018-03-21T14:07:17.751Z,5.33
2018-03-21T14:09:45.942Z,5.27
2018-03-21T14:12:14.089Z,4.67
2018-03-21T14:14:42.191Z,5.03
2018-03-21T14:17:10.385Z,5.37
2018-03-21T14:19:38.473Z,6.10
2018-03-21T14:22:06.585Z,4.67
2018-03-21T14:24:34.756Z,4.57
2018-03-21T14:27:02.872Z,3.97
2018-03-21T14:42:25.994Z,6.87
2018-03-21T14:44:54.110Z,6.50
2018-03-21T14:47:22.234Z,7.60
2018-03-21T14:49:50.347Z,7.77
2018-03-21T14:52:18.462Z,5.63
2018-03-21T14:54:47.436Z,6.83
2018-03-21T14:57:15.559Z,6.10
2018-03-21T14:59:43.724Z,6.60
2018-03-21T15:02:11.840Z,6.83
2018-03-21T15:04:39.963Z,6.17
2018-03-21T15:07:08.097Z,8.10
2018-03-21T15:09:36.202Z,7.57
2018-03-21T15:12:04.340Z,8.00
2018-03-21T15:14:32.465Z,6.57
2018-03-21T15:17:01.222Z,6.33
2018-03-21T15:19:29.509Z,7.83
2018-03-21T15:21:57.631Z,7.13
2018-03-21T15:24:25.763Z,7.50
2018-03-21T15:26:53.934Z,7.90
2018-03-21T15:29:22.065Z,6.67
2018-03-21T15:31:50.193Z,7.37
2018-03-21T15:34:18.329Z,7.03
2018-03-21T15:36:46.424Z,13.47
2018-03-21T15:39:14.571Z,7.77
2018-03-21T15:41:42.679Z,7.97
2018-03-21T15:44:11.467Z,9.20
2018-03-21T15:46:40.359Z,8.43
2018-03-21T15:49:08.481Z,7.37
2018-03-21T15:51:36.632Z,6.30
2018-03-21T15:54:05.594Z,7.73
2018-03-21T15:56:33.668Z,6.63
2018-03-21T15:59:02.063Z,8.93
2018-03-21T16:01:30.240Z,6.97
2018-03-21T16:03:58.440Z,6.90
2018-03-21T16:06:26.548Z,7.00
2018-03-21T16:08:54.666Z,7.37
2018-03-21T16:11:22.932Z,7.23
2018-03-21T16:13:51.133Z,6.83
2018-03-21T16:16:19.260Z,9.33
2018-03-21T16:18:47.392Z,6.67
2018-03-21T16:21:15.510Z,7.07
2018-03-21T16:23:43.598Z,6.50
2018-03-21T16:26:11.856Z,6.93
2018-03-21T16:28:40.033Z,7.77
2018-03-21T16:31:08.273Z,7.63
2018-03-21T16:33:36.409Z,6.97
2018-03-21T16:36:05.387Z,9.83
2018-03-21T16:38:33.719Z,8.20
2018-03-21T16:41:01.879Z,7.20
2018-03-21T16:43:30.117Z,8.13
2018-03-21T16:45:58.669Z,6.90
2018-03-21T16:48:27.332Z,10.07
2018-03-21T16:50:55.782Z,7.80
2018-03-21T16:53:24.002Z,5.33
2018-03-21T16:55:52.129Z,8.20
2018-03-21T16:58:20.265Z,6.53
2018-03-21T17:00:48.374Z,7.20
2018-03-21T17:03:17.019Z,6.80
2018-03-21T17:05:45.473Z,7.30
2018-03-21T17:08:13.715Z,7.77
2018-03-21T17:10:42.546Z,12.27
2018-03-21T17:13:10.649Z,7.17
2018-03-21T17:15:38.764Z,6.53
2018-03-21T17:18:06.877Z,6.83
2018-03-21T17:20:35.041Z,7.10
2018-03-21T17:23:03.399Z,8.50
2018-03-21T17:25:31.622Z,8.40
2018-03-21T17:28:00.454Z,11.23
2018-03-21T17:30:28.575Z,8.93
2018-03-21T17:32:56.912Z,7.00
2018-03-21T17:35:25.050Z,6.83
2018-03-21T17:37:53.929Z,9.50
2018-03-21T17:40:26.085Z,8.10
2018-03-21T17:42:54.982Z,9.57
2018-03-21T17:45:23.122Z,9.47
2018-03-21T17:47:51.222Z,7.30
2018-03-21T17:50:19.654Z,8.97
2018-03-21T17:52:48.592Z,11.03
2018-03-21T17:55:16.728Z,7.43
2018-03-21T17:57:44.838Z,6.03
2018-03-21T18:00:12.937Z,8.00
2018-03-21T18:02:41.042Z,9.30
2018-03-21T18:05:09.258Z,10.73
2018-03-21T18:07:38.761Z,8.87
2018-03-21T18:10:07.262Z,7.90
2018-03-21T18:12:35.424Z,7.00
2018-03-21T18:15:03.544Z,9.13
2018-03-21T18:17:32.083Z,8.43
2018-03-21T18:20:00.213Z,6.93
2018-03-21T18:22:28.333Z,8.10
2018-03-21T18:24:56.467Z,9.77
2018-03-21T18:27:24.669Z,12.10
2018-03-21T18:29:52.867Z,10.47
2018-03-21T18:32:23.177Z,9.30
2018-03-21T18:34:51.429Z,11.53
2018-03-21T18:37:20.340Z,13.37
2018-03-21T18:39:48.519Z,9.27
2018-03-21T18:42:16.798Z,11.07
2018-03-21T18:44:44.962Z,11.63
2018-03-21T18:47:13.888Z,11.43
2018-03-21T18:49:42.152Z,13.87
2018-03-21T18:52:10.347Z,10.37
2018-03-21T18:54:38.522Z,14.17
2018-03-21T18:57:06.706Z,14.47
2018-03-21T18:59:34.897Z,14.87
2018-03-21T19:02:03.185Z,13.10
2018-03-21T19:04:31.388Z,13.80
2018-03-21T19:06:59.946Z,12.47
2018-03-21T19:09:28.510Z,13.10
2018-03-21T19:11:56.667Z,14.43
2018-03-21T19:14:24.924Z,14.43
2018-03-21T19:16:53.041Z,12.77
2018-03-21T19:19:21.155Z,12.23
2018-03-21T19:21:49.668Z,12.63
2018-03-21T19:24:18.389Z,16.70
2018-03-21T19:26:46.584Z,12.87
2018-03-21T19:29:14.764Z,13.60
2018-03-21T19:31:42.836Z,16.40
2018-03-21T19:47:06.203Z,18.83
2018-03-21T19:49:34.871Z,16.87
2018-03-21T19:52:03.078Z,15.03
2018-03-21T19:54:31.297Z,16.30
2018-03-21T19:56:59.532Z,12.17
2018-03-21T19:59:27.740Z,15.87
2018-03-21T20:01:56.101Z,14.77
2018-03-21T20:04:24.257Z,13.67
2018-03-21T20:06:52.549Z,12.37
2018-03-21T20:09:20.706Z,13.67
2018-03-21T20:11:48.926Z,12.63
2018-03-21T20:14:17.072Z,15.27
2018-03-21T20:16:46.026Z,17.23
2018-03-21T20:19:14.167Z,12.07
2018-03-21T20:21:42.666Z,12.87
2018-03-21T20:24:10.800Z,17.03
2018-03-21T20:26:39.121Z,17.40
2018-03-21T20:31:40.069Z,15.90
2018-03-21T20:34:12.154Z,17.77
2018-03-21T20:36:40.395Z,19.10
2018-03-21T20:39:08.506Z,25.10
2018-03-21T20:41:36.668Z,22.63
2018-03-21T20:44:04.787Z,17.37
2018-03-21T20:46:32.974Z,20.13
2018-03-21T20:49:01.503Z,22.87
2018-03-21T20:51:29.748Z,19.03
2018-03-21T20:53:57.942Z,24.67
2018-03-21T20:56:26.273Z,19.90
2018-03-21T20:58:54.537Z,19.17
2018-03-21T21:01:22.725Z,18.27
2018-03-21T21:03:51.090Z,23.37
2018-03-21T21:06:19.276Z,16.80
2018-03-21T21:08:47.442Z,17.47
2018-03-21T21:11:16.143Z,17.60
2018-03-21T21:13:44.256Z,23.33
2018-03-21T21:16:12.414Z,21.10
2018-03-21T21:18:45.318Z,21.50
2018-03-21T21:21:14.317Z,24.60
2018-03-21T21:23:42.454Z,17.10
2018-03-21T21:26:10.596Z,17.70
2018-03-21T21:28:38.729Z,18.27
2018-03-21T21:31:08.002Z,17.00
2018-03-21T21:33:36.911Z,21.00
2018-03-21T21:36:05.062Z,23.93
2018-03-21T21:38:33.270Z,24.13
2018-03-21T21:41:01.833Z,21.23
2018-03-21T21:43:29.974Z,21.87
2018-03-21T21:45:58.093Z,20.83
2018-03-21T21:48:26.496Z,20.23
2018-03-21T21:50:54.628Z,17.83
2018-03-21T21:53:22.766Z,19.73
2018-03-21T21:55:50.899Z,20.73
2018-03-21T21:58:19.018Z,19.27
2018-03-21T22:00:47.306Z,21.70
2018-03-21T22:03:15.577Z,24.63
2018-03-21T22:05:43.709Z,24.63
2018-03-21T22:08:11.837Z,22.00
2018-03-21T22:10:39.945Z,22.10
2018-03-21T22:13:08.086Z,23.67
2018-03-21T22:15:36.956Z,23.87
2018-03-21T22:18:05.071Z,23.03
2018-03-21T22:20:33.244Z,23.43
2018-03-21T22:23:01.365Z,26.23
2018-03-21T22:25:29.624Z,19.80
2018-03-21T22:27:58.000Z,27.27
2018-03-21T22:30:26.170Z,24.77
2018-03-21T22:32:54.291Z,22.63
2018-03-21T22:35:23.183Z,24.07
2018-03-21T22:37:51.291Z,25.37
2018-03-21T22:40:19.415Z,22.83
2018-03-21T22:42:47.655Z,27.23
2018-03-21T22:45:15.971Z,28.13
2018-03-21T22:47:44.185Z,27.00
2018-03-21T22:50:12.383Z,28.37
2018-03-21T22:52:40.545Z,23.67
2018-03-21T22:55:09.736Z,25.67
2018-03-21T23:10:32.881Z,17.10
2018-03-21T23:13:01.029Z,20.73
2018-03-21T23:15:29.143Z,20.10
2018-03-21T23:17:57.364Z,32.00
2018-03-21T23:20:25.575Z,35.07
2018-03-21T23:22:53.759Z,28.37
2018-03-21T23:25:25.517Z,26.60
2018-03-21T23:27:54.564Z,25.73
2018-03-21T23:30:22.687Z,25.13
2018-03-21T23:32:50.829Z,25.10
2018-03-21T23:35:19.023Z,24.23
2018-03-21T23:37:47.162Z,21.53
2018-03-21T23:40:17.203Z,26.07
2018-03-21T23:42:45.351Z,25.73
2018-03-21T23:45:14.242Z,28.93
2018-03-21T23:47:42.349Z,24.53
2018-03-21T23:50:14.825Z,23.53
2018-03-21T23:52:43.819Z,20.90
2018-03-21T23:55:11.937Z,27.27
2018-03-21T23:57:40.062Z,21.20
